Katalog artikala AutoNuic

Ukupno 34 aktivnih artikala (21.06.2018)
OLX ID SLIKA NAZIV CIJENA DATUM OBJAVE
30087224 Mitsubishi Pajero 3.2 D-ID kratki Mitsubishi Pajero 3.2 D-ID kratki 32.900 KM 18.06.2018
30044348 Toyota Hilux 3.0 D-4D City AT Toyota Hilux 3.0 D-4D City AT 42.000 KM 14.06.2018
29152120 Volvo S60 1.6D Summum Volvo S60 1.6D Summum 23.500 KM 13.06.2018
29037384 Volvo C70 T5 Summum 2012. godina Volvo C70 T5 Summum 2012. godina 42.000 KM 13.06.2018
27147784 Volvo XC60 D5 AWD A INSCRIPTION Volvo XC60 D5 AWD A INSCRIPTION 121.765 KM 13.06.2018
29037943 Opel Astra 1.4i EnJoy 2011. godina Opel Astra 1.4i EnJoy 2011. godina 14.000 KM 13.06.2018
28080528 Toyota Rav4 2.2D-4D Limited Toyota Rav4 2.2D-4D Limited 30.900 KM 13.06.2018
24472794 VW Caddy 2,0 SDI VW Caddy 2,0 SDI 11.600 KM 13.06.2018
23399787 Toyota LC V8 Luxury Toyota LC V8 Luxury 73.000 KM 13.06.2018
28006028 Volvo S60 D3 2011. g Volvo S60 D3 2011. g 25.500 KM 13.06.2018
17074266 Toyota Auris 2,0 D-4d Style Toyota Auris 2,0 D-4d Style 25.000 KM 13.06.2018
25699051 Volvo XC90 D5 AWD A Momentum Plus Volvo XC90 D5 AWD A Momentum Plus 117.330 KM 13.06.2018
24862303 TOYOTA PROACE 2.0 D-4D TOYOTA PROACE 2.0 D-4D 33.000 KM 13.06.2018
26131938 Volvo XC60 D4 AWD A Business Volvo XC60 D4 AWD A Business 87.666 KM 13.06.2018
26285608 Toyota Corolla 1.4D-4D Sol Toyota Corolla 1.4D-4D Sol 27.500 KM 13.06.2018
24472902 VW Caddy 2.0 SDI VW Caddy 2.0 SDI 10.800 KM 13.06.2018
15651196 Toyota Avensis 2,0 D-4D Luna WG Toyota Avensis 2,0 D-4D Luna WG 28.500 KM 13.06.2018
26842846 Toyota C-HR 1.2 Turbo C-ENTER Toyota C-HR 1.2 Turbo C-ENTER 32.900 KM 13.06.2018
26131405 Volvo V40 D2 Sport + Volvo V40 D2 Sport + 51.840 KM 13.06.2018
28916963 Land Cruiser V8 Land Cruiser V8 59.000 KM 13.06.2018
29112923 Volvo S90 D5 AWD A  Inscription Volvo S90 D5 AWD A Inscription 104.000 KM 13.06.2018
19812635 Volvo S80 D4 A Summum Volvo S80 D4 A Summum 30.000 KM 13.06.2018
29470894 Volvo S40 1.6D Kinetic 2007. godina Volvo S40 1.6D Kinetic 2007. godina Po dogovoru 13.06.2018
29470473 Volvo C30 1.6i Base 2008. godina Volvo C30 1.6i Base 2008. godina 10.900 KM 13.06.2018
28513960 Land Cruiser 120 Land Cruiser 120 34.900 KM 13.06.2018
29468142 Volvo C70 2.0D Summum 2010. godina Volvo C70 2.0D Summum 2010. godina 32.500 KM 29.500 KM 13.06.2018
29644323 Volvo XC60 D5 AWD A Inscription Volvo XC60 D5 AWD A Inscription 130.500 KM 13.06.2018
29597291 Toyota Corolla 1.6 Valvematic Style Toyota Corolla 1.6 Valvematic Style 30.700 KM 13.06.2018
25537058 Volvo V40 D2 Nordic Volvo V40 D2 Nordic 42.500 KM 13.06.2018
29566642 Toyota Hilux 2.4D-4D 4X4 A/T6 City Plus Toyota Hilux 2.4D-4D 4X4 A/T6 City Plus 70.430 KM 13.06.2018
30023738 Volvo XC90 D5 AWD A Inscription Plus Volvo XC90 D5 AWD A Inscription Plus 140.810 KM 12.06.2018
29965538 Audi Q5 2.0TDI Quattro S-Tronic Audi Q5 2.0TDI Quattro S-Tronic 34.900 KM 07.06.2018
29953379 Toyota Rav4 2.2D Elegant 2013. godina Toyota Rav4 2.2D Elegant 2013. godina 30.500 KM 06.06.2018
29952780 Toyota Yaris 1.33 Dual VVT-I Trend Toyota Yaris 1.33 Dual VVT-I Trend 15.900 KM 06.06.2018